sensor_id;sensor_type;location;lat;lon;timestamp;P1;durP1;ratioP1;P2;durP2;ratioP2
8349;SDS011;60699;48.946;8.412;2022-09-04T00:00:20;2.30;;;2.10;;
8349;SDS011;60699;48.946;8.412;2022-09-04T00:02:51;2.20;;;2.10;;
8349;SDS011;60699;48.946;8.412;2022-09-04T00:05:21;1.70;;;1.60;;
8349;SDS011;60699;48.946;8.412;2022-09-04T00:07:56;1.77;;;1.67;;
8349;SDS011;60699;48.946;8.412;2022-09-04T00:10:26;2.00;;;1.90;;
8349;SDS011;60699;48.946;8.412;2022-09-04T00:12:56;2.33;;;2.13;;
8349;SDS011;60699;48.946;8.412;2022-09-04T00:15:28;1.87;;;1.77;;
8349;SDS011;60699;48.946;8.412;2022-09-04T00:17:57;3.10;;;2.50;;
8349;SDS011;60699;48.946;8.412;2022-09-04T00:20:27;2.03;;;1.90;;
8349;SDS011;60699;48.946;8.412;2022-09-04T00:22:57;2.47;;;2.20;;
8349;SDS011;60699;48.946;8.412;2022-09-04T00:25:27;4.40;;;2.40;;
8349;SDS011;60699;48.946;8.412;2022-09-04T00:27:59;1.50;;;1.40;;
8349;SDS011;60699;48.946;8.412;2022-09-04T00:30:30;2.27;;;1.93;;
8349;SDS011;60699;48.946;8.412;2022-09-04T00:33:00;4.13;;;1.90;;
8349;SDS011;60699;48.946;8.412;2022-09-04T00:35:30;1.60;;;1.50;;
8349;SDS011;60699;48.946;8.412;2022-09-04T00:37:59;2.00;;;1.90;;
8349;SDS011;60699;48.946;8.412;2022-09-04T00:40:28;2.33;;;2.17;;
8349;SDS011;60699;48.946;8.412;2022-09-04T00:43:04;2.07;;;1.97;;
8349;SDS011;60699;48.946;8.412;2022-09-04T00:45:43;1.93;;;1.80;;
8349;SDS011;60699;48.946;8.412;2022-09-04T00:48:26;1.93;;;1.83;;
8349;SDS011;60699;48.946;8.412;2022-09-04T00:51:07;2.07;;;1.97;;
8349;SDS011;60699;48.946;8.412;2022-09-04T00:53:44;1.93;;;1.83;;
8349;SDS011;60699;48.946;8.412;2022-09-04T00:56:25;2.73;;;2.07;;
8349;SDS011;60699;48.946;8.412;2022-09-04T00:59:00;2.70;;;2.50;;
8349;SDS011;60699;48.946;8.412;2022-09-04T01:01:29;2.53;;;2.37;;
8349;SDS011;60699;48.946;8.412;2022-09-04T01:04:06;3.10;;;2.80;;
8349;SDS011;60699;48.946;8.412;2022-09-04T01:06:41;2.57;;;2.37;;
8349;SDS011;60699;48.946;8.412;2022-09-04T01:09:28;2.37;;;2.17;;
8349;SDS011;60699;48.946;8.412;2022-09-04T01:12:01;2.93;;;2.73;;
8349;SDS011;60699;48.946;8.412;2022-09-04T01:14:32;2.70;;;2.50;;
8349;SDS011;60699;48.946;8.412;2022-09-04T01:17:08;2.80;;;2.60;;
8349;SDS011;60699;48.946;8.412;2022-09-04T01:19:40;2.47;;;2.20;;
8349;SDS011;60699;48.946;8.412;2022-09-04T01:22:15;2.87;;;2.57;;
8349;SDS011;60699;48.946;8.412;2022-09-04T01:24:51;3.93;;;2.90;;
8349;SDS011;60699;48.946;8.412;2022-09-04T01:27:23;2.67;;;2.10;;
8349;SDS011;60699;48.946;8.412;2022-09-04T01:29:52;1.97;;;1.87;;
8349;SDS011;60699;48.946;8.412;2022-09-04T01:32:27;3.23;;;2.43;;
8349;SDS011;60699;48.946;8.412;2022-09-04T01:34:56;4.37;;;2.30;;
8349;SDS011;60699;48.946;8.412;2022-09-04T01:37:29;2.30;;;2.07;;
8349;SDS011;60699;48.946;8.412;2022-09-04T01:40:10;2.70;;;2.43;;
8349;SDS011;60699;48.946;8.412;2022-09-04T01:42:42;2.10;;;2.00;;
8349;SDS011;60699;48.946;8.412;2022-09-04T01:45:11;1.87;;;1.77;;
8349;SDS011;60699;48.946;8.412;2022-09-04T01:47:41;2.53;;;2.20;;
8349;SDS011;60699;48.946;8.412;2022-09-04T01:50:10;2.53;;;2.33;;
8349;SDS011;60699;48.946;8.412;2022-09-04T01:52:40;3.10;;;2.20;;
8349;SDS011;60699;48.946;8.412;2022-09-04T01:55:13;3.00;;;2.60;;
8349;SDS011;60699;48.946;8.412;2022-09-04T01:57:47;3.03;;;2.27;;
8349;SDS011;60699;48.946;8.412;2022-09-04T02:00:19;2.13;;;2.03;;
8349;SDS011;60699;48.946;8.412;2022-09-04T02:02:58;2.50;;;2.40;;
8349;SDS011;60699;48.946;8.412;2022-09-04T02:05:30;3.57;;;1.90;;
8349;SDS011;60699;48.946;8.412;2022-09-04T02:08:02;2.53;;;2.33;;
8349;SDS011;60699;48.946;8.412;2022-09-04T02:10:33;2.23;;;1.87;;
8349;SDS011;60699;48.946;8.412;2022-09-04T02:13:08;5.23;;;2.53;;
8349;SDS011;60699;48.946;8.412;2022-09-04T02:15:41;2.47;;;2.30;;
8349;SDS011;60699;48.946;8.412;2022-09-04T02:18:13;2.37;;;2.20;;
8349;SDS011;60699;48.946;8.412;2022-09-04T02:20:46;1.97;;;1.87;;
8349;SDS011;60699;48.946;8.412;2022-09-04T02:23:17;2.47;;;2.27;;
8349;SDS011;60699;48.946;8.412;2022-09-04T02:25:50;2.70;;;2.13;;
8349;SDS011;60699;48.946;8.412;2022-09-04T02:28:24;3.53;;;2.10;;
8349;SDS011;60699;48.946;8.412;2022-09-04T02:31:00;2.07;;;1.93;;
8349;SDS011;60699;48.946;8.412;2022-09-04T02:33:30;2.47;;;2.27;;
8349;SDS011;60699;48.946;8.412;2022-09-04T02:36:01;2.70;;;2.23;;
8349;SDS011;60699;48.946;8.412;2022-09-04T02:38:31;1.90;;;1.80;;
8349;SDS011;60699;48.946;8.412;2022-09-04T02:41:03;2.37;;;2.17;;
8349;SDS011;60699;48.946;8.412;2022-09-04T02:43:40;2.10;;;2.00;;
8349;SDS011;60699;48.946;8.412;2022-09-04T02:46:12;2.40;;;2.03;;
8349;SDS011;60699;48.946;8.412;2022-09-04T02:48:43;4.77;;;3.43;;
8349;SDS011;60699;48.946;8.412;2022-09-04T02:51:17;2.20;;;2.00;;
8349;SDS011;60699;48.946;8.412;2022-09-04T02:53:49;2.27;;;2.17;;
8349;SDS011;60699;48.946;8.412;2022-09-04T02:56:20;4.40;;;2.83;;
8349;SDS011;60699;48.946;8.412;2022-09-04T02:59:09;2.33;;;2.13;;
8349;SDS011;60699;48.946;8.412;2022-09-04T03:01:41;3.50;;;2.90;;
8349;SDS011;60699;48.946;8.412;2022-09-04T03:04:11;3.20;;;2.90;;
8349;SDS011;60699;48.946;8.412;2022-09-04T03:06:48;2.90;;;2.60;;
8349;SDS011;60699;48.946;8.412;2022-09-04T03:09:18;2.90;;;2.70;;
8349;SDS011;60699;48.946;8.412;2022-09-04T03:11:47;3.50;;;3.20;;
8349;SDS011;60699;48.946;8.412;2022-09-04T03:14:18;3.87;;;2.50;;
8349;SDS011;60699;48.946;8.412;2022-09-04T03:16:49;2.30;;;2.10;;
8349;SDS011;60699;48.946;8.412;2022-09-04T03:19:18;3.10;;;2.90;;
8349;SDS011;60699;48.946;8.412;2022-09-04T03:21:48;3.13;;;2.60;;
8349;SDS011;60699;48.946;8.412;2022-09-04T03:24:19;2.40;;;2.20;;
8349;SDS011;60699;48.946;8.412;2022-09-04T03:26:49;5.30;;;2.50;;
8349;SDS011;60699;48.946;8.412;2022-09-04T03:29:20;2.43;;;2.20;;
8349;SDS011;60699;48.946;8.412;2022-09-04T03:31:53;2.70;;;2.50;;
8349;SDS011;60699;48.946;8.412;2022-09-04T03:34:26;2.70;;;2.60;;
8349;SDS011;60699;48.946;8.412;2022-09-04T03:37:02;4.53;;;2.50;;
8349;SDS011;60699;48.946;8.412;2022-09-04T03:39:36;2.23;;;2.10;;
8349;SDS011;60699;48.946;8.412;2022-09-04T03:42:07;2.30;;;1.93;;
8349;SDS011;60699;48.946;8.412;2022-09-04T03:44:43;2.13;;;2.03;;
8349;SDS011;60699;48.946;8.412;2022-09-04T03:47:19;3.03;;;2.10;;
8349;SDS011;60699;48.946;8.412;2022-09-04T03:49:52;3.30;;;2.53;;
8349;SDS011;60699;48.946;8.412;2022-09-04T03:52:23;3.30;;;2.20;;
8349;SDS011;60699;48.946;8.412;2022-09-04T03:54:58;3.23;;;2.23;;
8349;SDS011;60699;48.946;8.412;2022-09-04T03:57:30;2.70;;;2.50;;
8349;SDS011;60699;48.946;8.412;2022-09-04T04:00:05;2.10;;;1.90;;
8349;SDS011;60699;48.946;8.412;2022-09-04T04:02:36;3.83;;;2.43;;
8349;SDS011;60699;48.946;8.412;2022-09-04T04:05:11;2.80;;;2.60;;
8349;SDS011;60699;48.946;8.412;2022-09-04T04:07:42;2.73;;;2.53;;
8349;SDS011;60699;48.946;8.412;2022-09-04T04:10:15;2.43;;;2.23;;
8349;SDS011;60699;48.946;8.412;2022-09-04T04:12:48;2.37;;;2.17;;
8349;SDS011;60699;48.946;8.412;2022-09-04T04:15:23;2.10;;;2.00;;
8349;SDS011;60699;48.946;8.412;2022-09-04T04:18:07;2.90;;;2.30;;
8349;SDS011;60699;48.946;8.412;2022-09-04T04:20:40;3.40;;;2.87;;
8349;SDS011;60699;48.946;8.412;2022-09-04T04:23:13;2.93;;;2.00;;
8349;SDS011;60699;48.946;8.412;2022-09-04T04:25:44;2.20;;;2.03;;
8349;SDS011;60699;48.946;8.412;2022-09-04T04:28:17;2.63;;;2.43;;
8349;SDS011;60699;48.946;8.412;2022-09-04T04:30:51;2.70;;;2.50;;
8349;SDS011;60699;48.946;8.412;2022-09-04T04:33:21;3.10;;;2.70;;
8349;SDS011;60699;48.946;8.412;2022-09-04T04:35:51;3.00;;;2.63;;
8349;SDS011;60699;48.946;8.412;2022-09-04T04:38:23;2.37;;;2.17;;
8349;SDS011;60699;48.946;8.412;2022-09-04T04:41:03;2.47;;;2.37;;
8349;SDS011;60699;48.946;8.412;2022-09-04T04:43:33;2.30;;;2.10;;
8349;SDS011;60699;48.946;8.412;2022-09-04T04:46:05;2.90;;;2.70;;
8349;SDS011;60699;48.946;8.412;2022-09-04T04:48:38;3.80;;;2.40;;
8349;SDS011;60699;48.946;8.412;2022-09-04T04:51:14;2.20;;;2.03;;
8349;SDS011;60699;48.946;8.412;2022-09-04T04:53:45;3.07;;;2.87;;
8349;SDS011;60699;48.946;8.412;2022-09-04T04:56:16;2.77;;;2.57;;
8349;SDS011;60699;48.946;8.412;2022-09-04T04:58:51;2.47;;;2.27;;
8349;SDS011;60699;48.946;8.412;2022-09-04T05:01:29;2.50;;;2.30;;
8349;SDS011;60699;48.946;8.412;2022-09-04T05:04:01;4.23;;;2.60;;
8349;SDS011;60699;48.946;8.412;2022-09-04T05:06:33;2.80;;;2.60;;
8349;SDS011;60699;48.946;8.412;2022-09-04T05:09:05;2.90;;;2.70;;
8349;SDS011;60699;48.946;8.412;2022-09-04T05:11:36;2.77;;;2.53;;
8349;SDS011;60699;48.946;8.412;2022-09-04T05:14:07;2.20;;;2.10;;
8349;SDS011;60699;48.946;8.412;2022-09-04T05:16:40;3.03;;;2.63;;
8349;SDS011;60699;48.946;8.412;2022-09-04T05:19:14;2.57;;;2.37;;
8349;SDS011;60699;48.946;8.412;2022-09-04T05:21:46;2.60;;;2.40;;
8349;SDS011;60699;48.946;8.412;2022-09-04T05:24:17;2.53;;;2.33;;
8349;SDS011;60699;48.946;8.412;2022-09-04T05:26:47;2.87;;;2.67;;
8349;SDS011;60699;48.946;8.412;2022-09-04T05:29:15;2.47;;;2.30;;
8349;SDS011;60699;48.946;8.412;2022-09-04T05:31:47;2.60;;;2.40;;
8349;SDS011;60699;48.946;8.412;2022-09-04T05:34:18;2.87;;;2.67;;
8349;SDS011;60699;48.946;8.412;2022-09-04T05:36:54;2.77;;;2.60;;
8349;SDS011;60699;48.946;8.412;2022-09-04T05:39:25;2.47;;;2.03;;
8349;SDS011;60699;48.946;8.412;2022-09-04T05:42:04;3.07;;;2.77;;
8349;SDS011;60699;48.946;8.412;2022-09-04T05:44:35;2.83;;;2.63;;
8349;SDS011;60699;48.946;8.412;2022-09-04T05:47:06;2.80;;;2.37;;
8349;SDS011;60699;48.946;8.412;2022-09-04T05:49:39;2.57;;;2.37;;
8349;SDS011;60699;48.946;8.412;2022-09-04T05:52:18;2.60;;;2.40;;
8349;SDS011;60699;48.946;8.412;2022-09-04T05:57:39;3.07;;;2.77;;
8349;SDS011;60699;48.946;8.412;2022-09-04T06:00:11;2.70;;;2.50;;
8349;SDS011;60699;48.946;8.412;2022-09-04T06:02:51;3.83;;;3.27;;
8349;SDS011;60699;48.946;8.412;2022-09-04T06:05:23;3.17;;;2.90;;
8349;SDS011;60699;48.946;8.412;2022-09-04T06:07:54;3.50;;;3.20;;
8349;SDS011;60699;48.946;8.412;2022-09-04T06:10:26;3.50;;;3.27;;
8349;SDS011;60699;48.946;8.412;2022-09-04T06:13:15;2.77;;;2.57;;
8349;SDS011;60699;48.946;8.412;2022-09-04T06:15:49;2.90;;;2.70;;
8349;SDS011;60699;48.946;8.412;2022-09-04T06:18:26;4.03;;;2.73;;
8349;SDS011;60699;48.946;8.412;2022-09-04T06:23:47;3.17;;;2.50;;
8349;SDS011;60699;48.946;8.412;2022-09-04T06:26:26;3.77;;;2.83;;
8349;SDS011;60699;48.946;8.412;2022-09-04T06:34:20;3.03;;;2.70;;
8349;SDS011;60699;48.946;8.412;2022-09-04T06:36:55;3.10;;;2.90;;
8349;SDS011;60699;48.946;8.412;2022-09-04T06:39:42;2.67;;;2.47;;
8349;SDS011;60699;48.946;8.412;2022-09-04T06:42:15;6.10;;;2.70;;
8349;SDS011;60699;48.946;8.412;2022-09-04T06:44:51;3.83;;;2.93;;
8349;SDS011;60699;48.946;8.412;2022-09-04T06:47:21;3.17;;;2.87;;
8349;SDS011;60699;48.946;8.412;2022-09-04T06:50:00;3.10;;;2.90;;
8349;SDS011;60699;48.946;8.412;2022-09-04T06:52:31;3.47;;;2.83;;
8349;SDS011;60699;48.946;8.412;2022-09-04T06:55:04;2.83;;;2.63;;
8349;SDS011;60699;48.946;8.412;2022-09-04T06:57:41;2.90;;;2.70;;
8349;SDS011;60699;48.946;8.412;2022-09-04T07:00:12;3.33;;;2.93;;
8349;SDS011;60699;48.946;8.412;2022-09-04T07:02:45;3.97;;;3.57;;
8349;SDS011;60699;48.946;8.412;2022-09-04T07:05:18;3.07;;;2.77;;
8349;SDS011;60699;48.946;8.412;2022-09-04T07:07:48;3.13;;;2.90;;
8349;SDS011;60699;48.946;8.412;2022-09-04T07:10:19;6.97;;;3.27;;
8349;SDS011;60699;48.946;8.412;2022-09-04T07:12:51;3.30;;;3.00;;
8349;SDS011;60699;48.946;8.412;2022-09-04T07:18:05;4.23;;;3.47;;
8349;SDS011;60699;48.946;8.412;2022-09-04T07:20:39;3.13;;;2.50;;
8349;SDS011;60699;48.946;8.412;2022-09-04T07:23:17;2.60;;;2.40;;
8349;SDS011;60699;48.946;8.412;2022-09-04T07:25:53;3.60;;;2.83;;
8349;SDS011;60699;48.946;8.412;2022-09-04T07:28:37;4.23;;;3.10;;
8349;SDS011;60699;48.946;8.412;2022-09-04T07:31:07;3.50;;;2.70;;
8349;SDS011;60699;48.946;8.412;2022-09-04T07:33:38;4.57;;;3.47;;
8349;SDS011;60699;48.946;8.412;2022-09-04T07:36:10;3.53;;;3.23;;
8349;SDS011;60699;48.946;8.412;2022-09-04T07:38:42;4.90;;;4.20;;
8349;SDS011;60699;48.946;8.412;2022-09-04T07:41:13;4.20;;;2.80;;
8349;SDS011;60699;48.946;8.412;2022-09-04T07:43:45;3.57;;;3.27;;
8349;SDS011;60699;48.946;8.412;2022-09-04T07:46:17;4.23;;;2.53;;
8349;SDS011;60699;48.946;8.412;2022-09-04T07:48:48;4.23;;;3.80;;
8349;SDS011;60699;48.946;8.412;2022-09-04T07:51:17;3.30;;;2.77;;
8349;SDS011;60699;48.946;8.412;2022-09-04T07:54:03;3.53;;;2.90;;
8349;SDS011;60699;48.946;8.412;2022-09-04T07:56:33;3.00;;;2.80;;
8349;SDS011;60699;48.946;8.412;2022-09-04T07:59:14;3.50;;;3.20;;
8349;SDS011;60699;48.946;8.412;2022-09-04T08:01:48;3.83;;;3.53;;
8349;SDS011;60699;48.946;8.412;2022-09-04T08:07:10;3.10;;;2.90;;
8349;SDS011;60699;48.946;8.412;2022-09-04T08:09:47;3.13;;;2.93;;
8349;SDS011;60699;48.946;8.412;2022-09-04T08:12:20;5.47;;;3.80;;
8349;SDS011;60699;48.946;8.412;2022-09-04T08:14:51;3.70;;;3.50;;
8349;SDS011;60699;48.946;8.412;2022-09-04T08:17:22;5.60;;;3.33;;
8349;SDS011;60699;48.946;8.412;2022-09-04T08:19:55;3.80;;;2.90;;
8349;SDS011;60699;48.946;8.412;2022-09-04T08:22:30;3.20;;;2.60;;
8349;SDS011;60699;48.946;8.412;2022-09-04T08:25:02;3.07;;;2.77;;
8349;SDS011;60699;48.946;8.412;2022-09-04T08:27:42;4.30;;;3.50;;
8349;SDS011;60699;48.946;8.412;2022-09-04T08:30:15;2.80;;;2.60;;
8349;SDS011;60699;48.946;8.412;2022-09-04T08:32:55;3.50;;;3.20;;
8349;SDS011;60699;48.946;8.412;2022-09-04T08:35:26;3.87;;;3.00;;
8349;SDS011;60699;48.946;8.412;2022-09-04T08:38:01;3.40;;;3.10;;
8349;SDS011;60699;48.946;8.412;2022-09-04T08:40:53;2.07;;;1.93;;
8349;SDS011;60699;48.946;8.412;2022-09-04T08:43:28;2.90;;;2.50;;
8349;SDS011;60699;48.946;8.412;2022-09-04T08:48:55;3.03;;;2.83;;
8349;SDS011;60699;48.946;8.412;2022-09-04T08:57:12;2.90;;;2.70;;
8349;SDS011;60699;48.946;8.412;2022-09-04T09:02:52;3.43;;;2.60;;
8349;SDS011;60699;48.946;8.412;2022-09-04T09:08:23;2.13;;;2.03;;
8349;SDS011;60699;48.946;8.412;2022-09-04T09:13:45;2.63;;;2.43;;
8349;SDS011;60699;48.946;8.412;2022-09-04T09:16:19;2.47;;;2.30;;
8349;SDS011;60699;48.946;8.412;2022-09-04T09:18:57;2.60;;;2.40;;
8349;SDS011;60699;48.946;8.412;2022-09-04T09:21:30;2.30;;;2.10;;
8349;SDS011;60699;48.946;8.412;2022-09-04T09:24:12;2.67;;;2.47;;
8349;SDS011;60699;48.946;8.412;2022-09-04T09:26:42;2.93;;;2.13;;
8349;SDS011;60699;48.946;8.412;2022-09-04T09:29:37;3.30;;;2.90;;
8349;SDS011;60699;48.946;8.412;2022-09-04T09:32:24;3.07;;;2.00;;
8349;SDS011;60699;48.946;8.412;2022-09-04T09:46:18;5.30;;;2.17;;
8349;SDS011;60699;48.946;8.412;2022-09-04T09:48:56;2.43;;;2.23;;
8349;SDS011;60699;48.946;8.412;2022-09-04T09:54:27;4.20;;;2.50;;
8349;SDS011;60699;48.946;8.412;2022-09-04T09:57:00;2.30;;;2.10;;
8349;SDS011;60699;48.946;8.412;2022-09-04T10:05:16;2.10;;;2.00;;
8349;SDS011;60699;48.946;8.412;2022-09-04T10:07:59;2.50;;;2.33;;
8349;SDS011;60699;48.946;8.412;2022-09-04T10:10:38;2.20;;;2.00;;
8349;SDS011;60699;48.946;8.412;2022-09-04T10:13:14;2.37;;;2.17;;
8349;SDS011;60699;48.946;8.412;2022-09-04T10:15:59;2.70;;;2.10;;
8349;SDS011;60699;48.946;8.412;2022-09-04T10:21:37;3.50;;;3.20;;
8349;SDS011;60699;48.946;8.412;2022-09-04T10:24:32;3.73;;;2.43;;
8349;SDS011;60699;48.946;8.412;2022-09-04T10:29:59;2.67;;;2.10;;
8349;SDS011;60699;48.946;8.412;2022-09-04T10:32:38;3.10;;;2.63;;
8349;SDS011;60699;48.946;8.412;2022-09-04T10:35:13;2.50;;;2.33;;
8349;SDS011;60699;48.946;8.412;2022-09-04T10:37:52;2.23;;;2.13;;
8349;SDS011;60699;48.946;8.412;2022-09-04T10:40:22;2.33;;;2.23;;
8349;SDS011;60699;48.946;8.412;2022-09-04T10:43:03;2.03;;;1.80;;
8349;SDS011;60699;48.946;8.412;2022-09-04T10:45:34;2.47;;;2.30;;
8349;SDS011;60699;48.946;8.412;2022-09-04T10:48:14;2.37;;;2.17;;
8349;SDS011;60699;48.946;8.412;2022-09-04T10:53:47;2.23;;;2.10;;
8349;SDS011;60699;48.946;8.412;2022-09-04T10:56:21;3.57;;;2.07;;
8349;SDS011;60699;48.946;8.412;2022-09-04T10:59:04;2.93;;;2.70;;
8349;SDS011;60699;48.946;8.412;2022-09-04T11:04:46;1.87;;;1.77;;
8349;SDS011;60699;48.946;8.412;2022-09-04T11:07:29;2.07;;;1.97;;
8349;SDS011;60699;48.946;8.412;2022-09-04T11:10:08;2.73;;;2.53;;
8349;SDS011;60699;48.946;8.412;2022-09-04T11:12:47;5.80;;;2.53;;
8349;SDS011;60699;48.946;8.412;2022-09-04T11:15:25;2.13;;;1.97;;
8349;SDS011;60699;48.946;8.412;2022-09-04T11:18:02;2.90;;;2.73;;
8349;SDS011;60699;48.946;8.412;2022-09-04T11:20:36;2.63;;;2.43;;
8349;SDS011;60699;48.946;8.412;2022-09-04T11:23:21;3.00;;;2.23;;
8349;SDS011;60699;48.946;8.412;2022-09-04T11:31:30;2.30;;;2.10;;
8349;SDS011;60699;48.946;8.412;2022-09-04T11:34:08;1.83;;;1.70;;
8349;SDS011;60699;48.946;8.412;2022-09-04T11:37:08;2.83;;;1.87;;
8349;SDS011;60699;48.946;8.412;2022-09-04T11:42:43;1.93;;;1.83;;
8349;SDS011;60699;48.946;8.412;2022-09-04T11:48:05;1.90;;;1.70;;
8349;SDS011;60699;48.946;8.412;2022-09-04T11:50:38;1.90;;;1.80;;
8349;SDS011;60699;48.946;8.412;2022-09-04T11:53:17;2.00;;;1.60;;
8349;SDS011;60699;48.946;8.412;2022-09-04T11:55:52;1.80;;;1.70;;
8349;SDS011;60699;48.946;8.412;2022-09-04T11:58:29;1.80;;;1.70;;
8349;SDS011;60699;48.946;8.412;2022-09-04T12:01:04;2.10;;;1.90;;
8349;SDS011;60699;48.946;8.412;2022-09-04T12:03:50;3.10;;;2.10;;
8349;SDS011;60699;48.946;8.412;2022-09-04T12:06:27;1.80;;;1.70;;
8349;SDS011;60699;48.946;8.412;2022-09-04T12:09:04;2.83;;;1.83;;
8349;SDS011;60699;48.946;8.412;2022-09-04T12:11:40;1.73;;;1.63;;
8349;SDS011;60699;48.946;8.412;2022-09-04T12:14:15;1.93;;;1.70;;
8349;SDS011;60699;48.946;8.412;2022-09-04T12:17:08;2.00;;;1.70;;
8349;SDS011;60699;48.946;8.412;2022-09-04T12:19:47;1.90;;;1.80;;
8349;SDS011;60699;48.946;8.412;2022-09-04T12:22:26;1.60;;;1.50;;
8349;SDS011;60699;48.946;8.412;2022-09-04T12:25:04;1.90;;;1.80;;
8349;SDS011;60699;48.946;8.412;2022-09-04T12:30:24;2.00;;;1.90;;
8349;SDS011;60699;48.946;8.412;2022-09-04T12:41:16;2.13;;;1.97;;
8349;SDS011;60699;48.946;8.412;2022-09-04T12:43:49;2.10;;;1.77;;
8349;SDS011;60699;48.946;8.412;2022-09-04T12:46:27;1.90;;;1.80;;
8349;SDS011;60699;48.946;8.412;2022-09-04T12:48:59;1.63;;;1.53;;
8349;SDS011;60699;48.946;8.412;2022-09-04T12:51:29;1.83;;;1.60;;
8349;SDS011;60699;48.946;8.412;2022-09-04T12:54:07;1.70;;;1.60;;
8349;SDS011;60699;48.946;8.412;2022-09-04T12:56:41;1.87;;;1.77;;
8349;SDS011;60699;48.946;8.412;2022-09-04T13:01:57;2.20;;;2.10;;
8349;SDS011;60699;48.946;8.412;2022-09-04T13:04:27;1.70;;;1.60;;
8349;SDS011;60699;48.946;8.412;2022-09-04T13:07:00;4.40;;;1.80;;
8349;SDS011;60699;48.946;8.412;2022-09-04T13:09:31;2.20;;;1.83;;
8349;SDS011;60699;48.946;8.412;2022-09-04T13:12:06;1.70;;;1.60;;
8349;SDS011;60699;48.946;8.412;2022-09-04T13:14:39;1.80;;;1.70;;
8349;SDS011;60699;48.946;8.412;2022-09-04T13:17:10;1.83;;;1.53;;
8349;SDS011;60699;48.946;8.412;2022-09-04T13:19:42;2.03;;;1.50;;
8349;SDS011;60699;48.946;8.412;2022-09-04T13:22:17;1.70;;;1.60;;
8349;SDS011;60699;48.946;8.412;2022-09-04T13:24:51;1.60;;;1.50;;
8349;SDS011;60699;48.946;8.412;2022-09-04T13:30:07;1.90;;;1.80;;
8349;SDS011;60699;48.946;8.412;2022-09-04T13:32:45;2.43;;;1.50;;
8349;SDS011;60699;48.946;8.412;2022-09-04T13:35:15;1.90;;;1.80;;
8349;SDS011;60699;48.946;8.412;2022-09-04T13:37:45;1.97;;;1.87;;
8349;SDS011;60699;48.946;8.412;2022-09-04T13:40:24;2.00;;;1.80;;
8349;SDS011;60699;48.946;8.412;2022-09-04T13:45:42;2.70;;;2.50;;
8349;SDS011;60699;48.946;8.412;2022-09-04T13:48:10;1.90;;;1.80;;
8349;SDS011;60699;48.946;8.412;2022-09-04T13:50:38;2.17;;;2.00;;
8349;SDS011;60699;48.946;8.412;2022-09-04T13:53:09;1.83;;;1.73;;
8349;SDS011;60699;48.946;8.412;2022-09-04T13:55:40;1.50;;;1.40;;
8349;SDS011;60699;48.946;8.412;2022-09-04T13:58:08;1.67;;;1.57;;
8349;SDS011;60699;48.946;8.412;2022-09-04T14:00:39;2.13;;;1.93;;
8349;SDS011;60699;48.946;8.412;2022-09-04T14:03:11;1.90;;;1.67;;
8349;SDS011;60699;48.946;8.412;2022-09-04T14:05:40;1.30;;;1.20;;
8349;SDS011;60699;48.946;8.412;2022-09-04T14:08:11;2.30;;;1.73;;
8349;SDS011;60699;48.946;8.412;2022-09-04T14:10:52;1.53;;;1.43;;
8349;SDS011;60699;48.946;8.412;2022-09-04T14:13:25;1.53;;;1.30;;
8349;SDS011;60699;48.946;8.412;2022-09-04T14:15:57;2.60;;;1.20;;
8349;SDS011;60699;48.946;8.412;2022-09-04T14:21:12;1.53;;;1.43;;
8349;SDS011;60699;48.946;8.412;2022-09-04T14:23:43;2.60;;;1.97;;
8349;SDS011;60699;48.946;8.412;2022-09-04T14:26:15;2.40;;;1.50;;
8349;SDS011;60699;48.946;8.412;2022-09-04T14:28:46;1.90;;;1.80;;
8349;SDS011;60699;48.946;8.412;2022-09-04T14:31:16;2.60;;;2.20;;
8349;SDS011;60699;48.946;8.412;2022-09-04T14:33:49;2.13;;;1.93;;
8349;SDS011;60699;48.946;8.412;2022-09-04T14:36:23;2.40;;;1.47;;
8349;SDS011;60699;48.946;8.412;2022-09-04T14:39:04;1.50;;;1.40;;
8349;SDS011;60699;48.946;8.412;2022-09-04T14:41:35;1.77;;;1.67;;
8349;SDS011;60699;48.946;8.412;2022-09-04T14:44:10;2.57;;;2.37;;
8349;SDS011;60699;48.946;8.412;2022-09-04T14:46:40;3.60;;;1.50;;
8349;SDS011;60699;48.946;8.412;2022-09-04T14:49:09;2.40;;;2.20;;
8349;SDS011;60699;48.946;8.412;2022-09-04T14:51:40;2.63;;;2.17;;
8349;SDS011;60699;48.946;8.412;2022-09-04T14:54:12;2.10;;;1.90;;
8349;SDS011;60699;48.946;8.412;2022-09-04T14:56:41;1.70;;;1.60;;
8349;SDS011;60699;48.946;8.412;2022-09-04T14:59:11;1.77;;;1.67;;
8349;SDS011;60699;48.946;8.412;2022-09-04T15:01:53;2.53;;;1.70;;
8349;SDS011;60699;48.946;8.412;2022-09-04T15:04:22;1.73;;;1.53;;
8349;SDS011;60699;48.946;8.412;2022-09-04T15:06:54;1.97;;;1.77;;
8349;SDS011;60699;48.946;8.412;2022-09-04T15:09:24;1.70;;;1.60;;
8349;SDS011;60699;48.946;8.412;2022-09-04T15:11:52;1.50;;;1.40;;
8349;SDS011;60699;48.946;8.412;2022-09-04T15:14:22;1.80;;;1.70;;
8349;SDS011;60699;48.946;8.412;2022-09-04T15:16:53;2.17;;;1.70;;
8349;SDS011;60699;48.946;8.412;2022-09-04T15:19:29;1.80;;;1.70;;
8349;SDS011;60699;48.946;8.412;2022-09-04T15:22:02;1.90;;;1.67;;
8349;SDS011;60699;48.946;8.412;2022-09-04T15:24:32;1.60;;;1.50;;
8349;SDS011;60699;48.946;8.412;2022-09-04T15:27:04;1.53;;;1.43;;
8349;SDS011;60699;48.946;8.412;2022-09-04T15:29:38;2.33;;;2.13;;
8349;SDS011;60699;48.946;8.412;2022-09-04T15:32:06;1.60;;;1.50;;
8349;SDS011;60699;48.946;8.412;2022-09-04T15:34:33;2.10;;;2.00;;
8349;SDS011;60699;48.946;8.412;2022-09-04T15:37:09;1.60;;;1.50;;
8349;SDS011;60699;48.946;8.412;2022-09-04T15:39:37;1.80;;;1.70;;
8349;SDS011;60699;48.946;8.412;2022-09-04T15:42:09;1.70;;;1.60;;
8349;SDS011;60699;48.946;8.412;2022-09-04T15:44:38;1.60;;;1.50;;
8349;SDS011;60699;48.946;8.412;2022-09-04T15:47:05;3.13;;;1.97;;
8349;SDS011;60699;48.946;8.412;2022-09-04T15:49:42;1.80;;;1.60;;
8349;SDS011;60699;48.946;8.412;2022-09-04T15:52:20;2.57;;;2.37;;
8349;SDS011;60699;48.946;8.412;2022-09-04T15:54:51;2.53;;;2.33;;
8349;SDS011;60699;48.946;8.412;2022-09-04T15:57:21;2.23;;;2.03;;
8349;SDS011;60699;48.946;8.412;2022-09-04T15:59:52;2.00;;;1.80;;
8349;SDS011;60699;48.946;8.412;2022-09-04T16:02:24;2.03;;;1.63;;
8349;SDS011;60699;48.946;8.412;2022-09-04T16:05:01;3.00;;;1.70;;
8349;SDS011;60699;48.946;8.412;2022-09-04T16:07:34;1.67;;;1.57;;
8349;SDS011;60699;48.946;8.412;2022-09-04T16:10:02;2.37;;;1.80;;
8349;SDS011;60699;48.946;8.412;2022-09-04T16:12:35;1.80;;;1.70;;
8349;SDS011;60699;48.946;8.412;2022-09-04T16:15:06;1.57;;;1.47;;
8349;SDS011;60699;48.946;8.412;2022-09-04T16:17:37;3.40;;;1.90;;
8349;SDS011;60699;48.946;8.412;2022-09-04T16:20:08;1.63;;;1.47;;
8349;SDS011;60699;48.946;8.412;2022-09-04T16:22:41;2.00;;;1.90;;
8349;SDS011;60699;48.946;8.412;2022-09-04T16:25:19;1.97;;;1.87;;
8349;SDS011;60699;48.946;8.412;2022-09-04T16:27:50;1.60;;;1.50;;
8349;SDS011;60699;48.946;8.412;2022-09-04T16:30:27;1.80;;;1.70;;
8349;SDS011;60699;48.946;8.412;2022-09-04T16:32:57;2.30;;;1.80;;
8349;SDS011;60699;48.946;8.412;2022-09-04T16:35:24;1.60;;;1.50;;
8349;SDS011;60699;48.946;8.412;2022-09-04T16:37:57;2.30;;;1.90;;
8349;SDS011;60699;48.946;8.412;2022-09-04T16:40:28;2.00;;;1.80;;
8349;SDS011;60699;48.946;8.412;2022-09-04T16:42:57;1.40;;;1.30;;
8349;SDS011;60699;48.946;8.412;2022-09-04T16:45:26;2.23;;;1.70;;
8349;SDS011;60699;48.946;8.412;2022-09-04T16:47:57;2.33;;;2.00;;
8349;SDS011;60699;48.946;8.412;2022-09-04T16:50:28;1.90;;;1.70;;
8349;SDS011;60699;48.946;8.412;2022-09-04T16:55:44;3.00;;;2.10;;
8349;SDS011;60699;48.946;8.412;2022-09-04T16:58:17;2.30;;;2.10;;
8349;SDS011;60699;48.946;8.412;2022-09-04T17:00:48;2.50;;;1.77;;
8349;SDS011;60699;48.946;8.412;2022-09-04T17:03:17;1.97;;;1.87;;
8349;SDS011;60699;48.946;8.412;2022-09-04T17:05:47;2.10;;;1.70;;
8349;SDS011;60699;48.946;8.412;2022-09-04T17:08:16;3.07;;;2.43;;
8349;SDS011;60699;48.946;8.412;2022-09-04T17:10:47;1.70;;;1.60;;
8349;SDS011;60699;48.946;8.412;2022-09-04T17:13:17;2.33;;;2.13;;
8349;SDS011;60699;48.946;8.412;2022-09-04T17:15:47;2.57;;;2.37;;
8349;SDS011;60699;48.946;8.412;2022-09-04T17:18:19;1.83;;;1.73;;
8349;SDS011;60699;48.946;8.412;2022-09-04T17:20:50;2.30;;;2.10;;